Terminal Aerodrome Forecast
Issued by NWS Lake Charles, LA

Home | Current Version | Previous Version | Text Only | Print | Product List | Glossary On
Versions: 1 2 3 4 5 6 7 8 9 10 11 12 13 14 15 16 17 18 19 20 21 22 23 24 25 26 27 28 29 30 31 32 33 34 35 36
000
FTUS44 KLCH 170251 AAB
TAFBPT
TAF AMD
KBPT 170251Z 1703/1724 32010KT P6SM VCTS SCT025CB BKN040
      TEMPO 1703/1706 VRB10G20KT 3SM SHRA BR BKN025
     FM170600 15008KT P6SM VCTS SCT025CB BKN040
     FM171200 15008KT P6SM VCTS SCT025CB BKN040
      TEMPO 1712/1716 3SM SHRA BKN025
     FM171600 19011G18KT P6SM VCTS SCT025CB BKN040
      TEMPO 1716/1720 3SM SHRA BKN025=

USA.gov is the U.S. government's official web portal to all federal, state and local government web resources and services.